sensor_id;sensor_type;location;lat;lon;timestamp;temperature;humidity
8103;DHT22;4094;49.948;11.574;2022-07-22T00:01:28;24.60;46.80
8103;DHT22;4094;49.948;11.574;2022-07-22T00:03:57;24.60;46.80
8103;DHT22;4094;49.948;11.574;2022-07-22T00:06:29;24.60;47.30
8103;DHT22;4094;49.948;11.574;2022-07-22T00:08:58;24.50;46.80
8103;DHT22;4094;49.948;11.574;2022-07-22T00:11:27;24.50;46.90
8103;DHT22;4094;49.948;11.574;2022-07-22T00:13:56;24.50;46.90
8103;DHT22;4094;49.948;11.574;2022-07-22T00:16:25;24.40;46.80
8103;DHT22;4094;49.948;11.574;2022-07-22T00:18:55;24.40;47.10
8103;DHT22;4094;49.948;11.574;2022-07-22T00:21:24;24.40;47.20
8103;DHT22;4094;49.948;11.574;2022-07-22T00:23:55;24.30;47.10
8103;DHT22;4094;49.948;11.574;2022-07-22T00:26:24;24.30;47.20
8103;DHT22;4094;49.948;11.574;2022-07-22T00:28:53;24.30;47.30
8103;DHT22;4094;49.948;11.574;2022-07-22T00:31:23;24.30;47.30
8103;DHT22;4094;49.948;11.574;2022-07-22T00:33:52;24.20;47.90
8103;DHT22;4094;49.948;11.574;2022-07-22T00:36:21;24.20;47.40
8103;DHT22;4094;49.948;11.574;2022-07-22T00:38:50;24.20;47.60
8103;DHT22;4094;49.948;11.574;2022-07-22T00:41:22;24.20;47.50
8103;DHT22;4094;49.948;11.574;2022-07-22T00:43:54;24.20;47.70
8103;DHT22;4094;49.948;11.574;2022-07-22T00:46:25;24.20;47.60
8103;DHT22;4094;49.948;11.574;2022-07-22T00:48:55;24.20;47.50
8103;DHT22;4094;49.948;11.574;2022-07-22T00:51:27;24.20;47.40
8103;DHT22;4094;49.948;11.574;2022-07-22T00:54:00;24.10;47.70
8103;DHT22;4094;49.948;11.574;2022-07-22T00:56:31;24.10;47.30
8103;DHT22;4094;49.948;11.574;2022-07-22T00:59:03;24.10;47.50
8103;DHT22;4094;49.948;11.574;2022-07-22T01:01:33;24.10;47.60
8103;DHT22;4094;49.948;11.574;2022-07-22T01:04:03;24.10;47.80
8103;DHT22;4094;49.948;11.574;2022-07-22T01:06:32;24.10;47.50
8103;DHT22;4094;49.948;11.574;2022-07-22T01:09:01;24.00;47.60
8103;DHT22;4094;49.948;11.574;2022-07-22T01:11:32;24.00;47.70
8103;DHT22;4094;49.948;11.574;2022-07-22T01:14:01;24.00;47.70
8103;DHT22;4094;49.948;11.574;2022-07-22T01:16:30;23.90;47.80
8103;DHT22;4094;49.948;11.574;2022-07-22T01:19:00;23.90;48.10
8103;DHT22;4094;49.948;11.574;2022-07-22T01:21:31;23.90;48.10
8103;DHT22;4094;49.948;11.574;2022-07-22T01:24:00;23.80;48.00
8103;DHT22;4094;49.948;11.574;2022-07-22T01:26:29;23.80;48.10
8103;DHT22;4094;49.948;11.574;2022-07-22T01:29:01;23.70;48.30
8103;DHT22;4094;49.948;11.574;2022-07-22T01:31:31;23.70;48.40
8103;DHT22;4094;49.948;11.574;2022-07-22T01:34:00;23.60;48.40
8103;DHT22;4094;49.948;11.574;2022-07-22T01:36:35;23.60;48.70
8103;DHT22;4094;49.948;11.574;2022-07-22T01:39:04;23.60;48.70
8103;DHT22;4094;49.948;11.574;2022-07-22T01:41:33;23.50;48.70
8103;DHT22;4094;49.948;11.574;2022-07-22T01:44:03;23.50;48.80
8103;DHT22;4094;49.948;11.574;2022-07-22T01:46:32;23.50;48.80
8103;DHT22;4094;49.948;11.574;2022-07-22T01:49:02;23.50;48.80
8103;DHT22;4094;49.948;11.574;2022-07-22T01:51:38;23.50;48.80
8103;DHT22;4094;49.948;11.574;2022-07-22T01:54:07;23.50;48.90
8103;DHT22;4094;49.948;11.574;2022-07-22T01:56:37;23.40;49.00
8103;DHT22;4094;49.948;11.574;2022-07-22T01:59:06;23.40;49.00
8103;DHT22;4094;49.948;11.574;2022-07-22T02:01:36;23.40;49.30
8103;DHT22;4094;49.948;11.574;2022-07-22T02:04:05;23.40;49.10
8103;DHT22;4094;49.948;11.574;2022-07-22T02:06:34;23.40;49.00
8103;DHT22;4094;49.948;11.574;2022-07-22T02:09:05;23.30;49.00
8103;DHT22;4094;49.948;11.574;2022-07-22T02:11:43;23.30;49.30
8103;DHT22;4094;49.948;11.574;2022-07-22T02:14:14;23.30;49.50
8103;DHT22;4094;49.948;11.574;2022-07-22T02:16:43;23.30;49.50
8103;DHT22;4094;49.948;11.574;2022-07-22T02:19:12;23.20;49.30
8103;DHT22;4094;49.948;11.574;2022-07-22T02:21:42;23.20;49.30
8103;DHT22;4094;49.948;11.574;2022-07-22T02:24:12;23.20;49.30
8103;DHT22;4094;49.948;11.574;2022-07-22T02:26:41;23.20;49.20
8103;DHT22;4094;49.948;11.574;2022-07-22T02:29:13;23.10;49.20
8103;DHT22;4094;49.948;11.574;2022-07-22T02:31:42;23.10;49.30
8103;DHT22;4094;49.948;11.574;2022-07-22T02:34:11;23.10;49.30
8103;DHT22;4094;49.948;11.574;2022-07-22T02:36:41;23.00;49.30
8103;DHT22;4094;49.948;11.574;2022-07-22T02:39:11;23.00;49.70
8103;DHT22;4094;49.948;11.574;2022-07-22T02:41:41;22.90;49.80
8103;DHT22;4094;49.948;11.574;2022-07-22T02:44:10;22.90;49.80
8103;DHT22;4094;49.948;11.574;2022-07-22T02:46:40;22.90;50.00
8103;DHT22;4094;49.948;11.574;2022-07-22T02:49:14;22.90;50.20
8103;DHT22;4094;49.948;11.574;2022-07-22T02:51:44;22.90;50.10
8103;DHT22;4094;49.948;11.574;2022-07-22T02:54:14;22.90;50.20
8103;DHT22;4094;49.948;11.574;2022-07-22T02:56:43;22.90;50.40
8103;DHT22;4094;49.948;11.574;2022-07-22T02:59:12;22.90;50.40
8103;DHT22;4094;49.948;11.574;2022-07-22T03:01:42;22.80;50.10
8103;DHT22;4094;49.948;11.574;2022-07-22T03:04:11;22.80;50.10
8103;DHT22;4094;49.948;11.574;2022-07-22T03:06:41;22.70;50.10
8103;DHT22;4094;49.948;11.574;2022-07-22T03:09:16;22.70;50.30
8103;DHT22;4094;49.948;11.574;2022-07-22T03:11:47;22.60;50.30
8103;DHT22;4094;49.948;11.574;2022-07-22T03:14:16;22.60;50.40
8103;DHT22;4094;49.948;11.574;2022-07-22T03:16:46;22.60;50.50
8103;DHT22;4094;49.948;11.574;2022-07-22T03:19:15;22.60;50.90
8103;DHT22;4094;49.948;11.574;2022-07-22T03:21:48;22.60;50.50
8103;DHT22;4094;49.948;11.574;2022-07-22T03:24:19;22.50;50.90
8103;DHT22;4094;49.948;11.574;2022-07-22T03:26:48;22.50;50.70
8103;DHT22;4094;49.948;11.574;2022-07-22T03:29:17;22.50;51.30
8103;DHT22;4094;49.948;11.574;2022-07-22T03:31:46;22.40;50.90
8103;DHT22;4094;49.948;11.574;2022-07-22T03:34:17;22.40;51.10
8103;DHT22;4094;49.948;11.574;2022-07-22T03:36:54;22.40;50.80
8103;DHT22;4094;49.948;11.574;2022-07-22T03:39:24;22.30;50.80
8103;DHT22;4094;49.948;11.574;2022-07-22T03:41:54;22.30;50.80
8103;DHT22;4094;49.948;11.574;2022-07-22T03:44:23;22.30;51.10
8103;DHT22;4094;49.948;11.574;2022-07-22T03:46:53;22.30;50.90
8103;DHT22;4094;49.948;11.574;2022-07-22T03:49:23;22.30;50.90
8103;DHT22;4094;49.948;11.574;2022-07-22T03:51:53;22.20;50.90
8103;DHT22;4094;49.948;11.574;2022-07-22T03:54:23;22.10;51.00
8103;DHT22;4094;49.948;11.574;2022-07-22T03:56:52;22.10;51.80
8103;DHT22;4094;49.948;11.574;2022-07-22T03:59:21;22.10;51.60
8103;DHT22;4094;49.948;11.574;2022-07-22T04:01:51;22.10;51.60
8103;DHT22;4094;49.948;11.574;2022-07-22T04:04:21;22.10;51.60
8103;DHT22;4094;49.948;11.574;2022-07-22T04:06:50;22.10;51.70
8103;DHT22;4094;49.948;11.574;2022-07-22T04:09:26;22.10;51.80
8103;DHT22;4094;49.948;11.574;2022-07-22T04:11:56;22.10;51.60
8103;DHT22;4094;49.948;11.574;2022-07-22T04:14:26;22.10;51.50
8103;DHT22;4094;49.948;11.574;2022-07-22T04:16:58;22.20;51.50
8103;DHT22;4094;49.948;11.574;2022-07-22T04:19:27;22.10;51.50
8103;DHT22;4094;49.948;11.574;2022-07-22T04:21:59;22.10;51.40
8103;DHT22;4094;49.948;11.574;2022-07-22T04:24:31;22.10;51.40
8103;DHT22;4094;49.948;11.574;2022-07-22T04:27:00;22.10;51.40
8103;DHT22;4094;49.948;11.574;2022-07-22T04:29:30;22.10;51.60
8103;DHT22;4094;49.948;11.574;2022-07-22T04:31:59;22.10;51.60
8103;DHT22;4094;49.948;11.574;2022-07-22T04:34:31;22.10;51.80
8103;DHT22;4094;49.948;11.574;2022-07-22T04:37:01;22.10;52.00
8103;DHT22;4094;49.948;11.574;2022-07-22T04:39:36;22.10;52.10
8103;DHT22;4094;49.948;11.574;2022-07-22T04:42:06;22.10;52.00
8103;DHT22;4094;49.948;11.574;2022-07-22T04:44:36;22.10;52.00
8103;DHT22;4094;49.948;11.574;2022-07-22T04:47:05;22.10;51.80
8103;DHT22;4094;49.948;11.574;2022-07-22T04:49:37;22.10;51.70
8103;DHT22;4094;49.948;11.574;2022-07-22T04:52:08;22.20;51.70
8103;DHT22;4094;49.948;11.574;2022-07-22T04:54:45;22.20;51.80
8103;DHT22;4094;49.948;11.574;2022-07-22T04:57:15;22.20;51.90
8103;DHT22;4094;49.948;11.574;2022-07-22T04:59:44;22.20;51.90
8103;DHT22;4094;49.948;11.574;2022-07-22T05:02:14;22.30;51.90
8103;DHT22;4094;49.948;11.574;2022-07-22T05:04:44;22.30;51.80
8103;DHT22;4094;49.948;11.574;2022-07-22T05:07:15;22.30;51.80
8103;DHT22;4094;49.948;11.574;2022-07-22T05:09:46;22.30;51.90
8103;DHT22;4094;49.948;11.574;2022-07-22T05:12:16;22.30;51.80
8103;DHT22;4094;49.948;11.574;2022-07-22T05:14:45;22.30;51.90
8103;DHT22;4094;49.948;11.574;2022-07-22T05:17:14;22.20;51.80
8103;DHT22;4094;49.948;11.574;2022-07-22T05:20:01;22.20;51.80
8103;DHT22;4094;49.948;11.574;2022-07-22T05:22:31;22.30;52.20
8103;DHT22;4094;49.948;11.574;2022-07-22T05:25:09;22.30;52.20
8103;DHT22;4094;49.948;11.574;2022-07-22T05:27:49;22.30;52.10
8103;DHT22;4094;49.948;11.574;2022-07-22T05:30:21;22.40;52.30
8103;DHT22;4094;49.948;11.574;2022-07-22T05:32:52;22.50;52.20
8103;DHT22;4094;49.948;11.574;2022-07-22T05:35:41;22.60;52.30
8103;DHT22;4094;49.948;11.574;2022-07-22T05:38:11;22.70;52.40
8103;DHT22;4094;49.948;11.574;2022-07-22T05:40:42;22.70;52.10
8103;DHT22;4094;49.948;11.574;2022-07-22T05:43:11;22.80;52.00
8103;DHT22;4094;49.948;11.574;2022-07-22T05:45:41;22.90;51.90
8103;DHT22;4094;49.948;11.574;2022-07-22T05:48:11;22.90;51.90
8103;DHT22;4094;49.948;11.574;2022-07-22T05:50:41;23.00;51.80
8103;DHT22;4094;49.948;11.574;2022-07-22T05:53:10;23.10;51.70
8103;DHT22;4094;49.948;11.574;2022-07-22T05:55:40;23.20;52.20
8103;DHT22;4094;49.948;11.574;2022-07-22T05:58:11;23.20;51.60
8103;DHT22;4094;49.948;11.574;2022-07-22T06:00:40;23.30;51.40
8103;DHT22;4094;49.948;11.574;2022-07-22T06:03:10;23.40;51.70
8103;DHT22;4094;49.948;11.574;2022-07-22T06:05:45;23.50;51.30
8103;DHT22;4094;49.948;11.574;2022-07-22T06:08:14;23.60;51.20
8103;DHT22;4094;49.948;11.574;2022-07-22T06:10:47;23.60;51.10
8103;DHT22;4094;49.948;11.574;2022-07-22T06:13:19;23.70;50.80
8103;DHT22;4094;49.948;11.574;2022-07-22T06:15:48;23.80;50.90
8103;DHT22;4094;49.948;11.574;2022-07-22T06:18:18;23.80;51.20
8103;DHT22;4094;49.948;11.574;2022-07-22T06:20:47;23.80;51.00
8103;DHT22;4094;49.948;11.574;2022-07-22T06:23:16;23.90;51.00
8103;DHT22;4094;49.948;11.574;2022-07-22T06:25:45;24.00;51.00
8103;DHT22;4094;49.948;11.574;2022-07-22T06:28:35;24.00;51.30
8103;DHT22;4094;49.948;11.574;2022-07-22T06:31:05;24.10;51.10
8103;DHT22;4094;49.948;11.574;2022-07-22T06:33:34;24.20;50.90
8103;DHT22;4094;49.948;11.574;2022-07-22T06:36:04;24.20;50.90
8103;DHT22;4094;49.948;11.574;2022-07-22T06:38:33;24.30;51.20
8103;DHT22;4094;49.948;11.574;2022-07-22T06:41:26;24.40;51.00
8103;DHT22;4094;49.948;11.574;2022-07-22T06:44:17;24.50;50.80
8103;DHT22;4094;49.948;11.574;2022-07-22T06:47:04;24.60;50.80
8103;DHT22;4094;49.948;11.574;2022-07-22T06:49:35;24.60;50.90
8103;DHT22;4094;49.948;11.574;2022-07-22T06:52:05;24.70;51.00
8103;DHT22;4094;49.948;11.574;2022-07-22T06:54:35;24.80;51.10
8103;DHT22;4094;49.948;11.574;2022-07-22T06:57:04;24.80;51.00
8103;DHT22;4094;49.948;11.574;2022-07-22T06:59:36;24.90;51.40
8103;DHT22;4094;49.948;11.574;2022-07-22T07:02:09;25.00;50.90
8103;DHT22;4094;49.948;11.574;2022-07-22T07:04:40;25.00;50.90
8103;DHT22;4094;49.948;11.574;2022-07-22T07:07:10;25.10;50.90
8103;DHT22;4094;49.948;11.574;2022-07-22T07:10:01;25.10;50.90
8103;DHT22;4094;49.948;11.574;2022-07-22T07:12:43;25.20;50.70
8103;DHT22;4094;49.948;11.574;2022-07-22T07:15:26;25.30;50.60
8103;DHT22;4094;49.948;11.574;2022-07-22T07:18:03;25.40;50.30
8103;DHT22;4094;49.948;11.574;2022-07-22T07:20:33;25.40;50.30
8103;DHT22;4094;49.948;11.574;2022-07-22T07:23:04;25.40;50.50
8103;DHT22;4094;49.948;11.574;2022-07-22T07:25:36;25.50;50.60
8103;DHT22;4094;49.948;11.574;2022-07-22T07:28:06;25.60;50.60
8103;DHT22;4094;49.948;11.574;2022-07-22T07:31:06;25.60;50.40
8103;DHT22;4094;49.948;11.574;2022-07-22T07:33:36;25.70;50.20
8103;DHT22;4094;49.948;11.574;2022-07-22T07:36:05;25.80;50.30
8103;DHT22;4094;49.948;11.574;2022-07-22T07:38:38;25.80;50.00
8103;DHT22;4094;49.948;11.574;2022-07-22T07:41:11;25.90;50.00
8103;DHT22;4094;49.948;11.574;2022-07-22T07:43:41;25.90;50.00
8103;DHT22;4094;49.948;11.574;2022-07-22T07:46:14;26.00;50.10
8103;DHT22;4094;49.948;11.574;2022-07-22T07:48:43;26.10;49.90
8103;DHT22;4094;49.948;11.574;2022-07-22T07:51:12;26.10;49.90
8103;DHT22;4094;49.948;11.574;2022-07-22T07:53:42;26.20;49.80
8103;DHT22;4094;49.948;11.574;2022-07-22T07:56:13;26.30;49.60
8103;DHT22;4094;49.948;11.574;2022-07-22T07:58:42;26.30;49.40
8103;DHT22;4094;49.948;11.574;2022-07-22T08:01:33;26.40;49.60
8103;DHT22;4094;49.948;11.574;2022-07-22T08:04:22;26.50;49.50
8103;DHT22;4094;49.948;11.574;2022-07-22T08:07:16;26.60;49.40
8103;DHT22;4094;49.948;11.574;2022-07-22T08:09:47;26.70;49.60
8103;DHT22;4094;49.948;11.574;2022-07-22T08:12:35;26.70;49.30
8103;DHT22;4094;49.948;11.574;2022-07-22T08:15:22;26.80;48.90
8103;DHT22;4094;49.948;11.574;2022-07-22T08:17:54;26.90;48.80
8103;DHT22;4094;49.948;11.574;2022-07-22T08:20:24;27.00;48.80
8103;DHT22;4094;49.948;11.574;2022-07-22T08:22:54;27.00;48.70
8103;DHT22;4094;49.948;11.574;2022-07-22T08:25:27;27.10;48.50
8103;DHT22;4094;49.948;11.574;2022-07-22T08:27:57;27.20;48.60
8103;DHT22;4094;49.948;11.574;2022-07-22T08:30:26;27.20;48.00
8103;DHT22;4094;49.948;11.574;2022-07-22T08:32:58;27.20;47.60
8103;DHT22;4094;49.948;11.574;2022-07-22T08:35:28;27.30;48.40
8103;DHT22;4094;49.948;11.574;2022-07-22T08:37:58;27.40;48.40
8103;DHT22;4094;49.948;11.574;2022-07-22T08:40:27;27.50;47.80
8103;DHT22;4094;49.948;11.574;2022-07-22T08:42:59;27.60;47.80
8103;DHT22;4094;49.948;11.574;2022-07-22T08:45:31;27.60;47.60
8103;DHT22;4094;49.948;11.574;2022-07-22T08:48:02;27.70;47.10
8103;DHT22;4094;49.948;11.574;2022-07-22T08:51:00;27.80;47.10
8103;DHT22;4094;49.948;11.574;2022-07-22T08:53:33;27.80;46.60
8103;DHT22;4094;49.948;11.574;2022-07-22T08:56:08;27.90;46.80
8103;DHT22;4094;49.948;11.574;2022-07-22T08:58:37;28.00;47.00
8103;DHT22;4094;49.948;11.574;2022-07-22T09:01:09;28.10;46.80
8103;DHT22;4094;49.948;11.574;2022-07-22T09:03:47;28.10;46.50
8103;DHT22;4094;49.948;11.574;2022-07-22T09:06:19;28.10;46.70
8103;DHT22;4094;49.948;11.574;2022-07-22T09:08:53;28.20;46.00
8103;DHT22;4094;49.948;11.574;2022-07-22T09:12:03;28.30;46.30
8103;DHT22;4094;49.948;11.574;2022-07-22T09:14:50;28.40;46.10
8103;DHT22;4094;49.948;11.574;2022-07-22T09:17:38;28.40;45.90
8103;DHT22;4094;49.948;11.574;2022-07-22T09:20:31;28.50;45.00
8103;DHT22;4094;49.948;11.574;2022-07-22T09:23:20;28.50;44.50
8103;DHT22;4094;49.948;11.574;2022-07-22T09:25:54;28.50;44.50
8103;DHT22;4094;49.948;11.574;2022-07-22T09:28:53;28.60;44.70
8103;DHT22;4094;49.948;11.574;2022-07-22T09:31:31;28.60;44.90
8103;DHT22;4094;49.948;11.574;2022-07-22T09:34:26;28.70;45.30
8103;DHT22;4094;49.948;11.574;2022-07-22T09:36:59;28.80;45.60
8103;DHT22;4094;49.948;11.574;2022-07-22T09:39:32;28.90;44.80
8103;DHT22;4094;49.948;11.574;2022-07-22T09:42:04;28.90;44.40
8103;DHT22;4094;49.948;11.574;2022-07-22T09:44:34;29.00;44.50
8103;DHT22;4094;49.948;11.574;2022-07-22T09:47:27;29.00;44.30
8103;DHT22;4094;49.948;11.574;2022-07-22T09:50:30;29.10;43.60
8103;DHT22;4094;49.948;11.574;2022-07-22T09:53:19;29.10;43.50
8103;DHT22;4094;49.948;11.574;2022-07-22T09:56:06;29.20;43.40
8103;DHT22;4094;49.948;11.574;2022-07-22T09:58:36;29.20;43.60
8103;DHT22;4094;49.948;11.574;2022-07-22T10:01:19;29.20;43.60
8103;DHT22;4094;49.948;11.574;2022-07-22T10:03:50;29.20;43.30
8103;DHT22;4094;49.948;11.574;2022-07-22T10:06:20;29.30;42.90
8103;DHT22;4094;49.948;11.574;2022-07-22T10:08:53;29.30;43.30
8103;DHT22;4094;49.948;11.574;2022-07-22T10:11:31;29.30;42.50
8103;DHT22;4094;49.948;11.574;2022-07-22T10:14:01;29.40;42.90
8103;DHT22;4094;49.948;11.574;2022-07-22T10:16:31;29.40;42.90
8103;DHT22;4094;49.948;11.574;2022-07-22T10:19:00;29.40;43.00
8103;DHT22;4094;49.948;11.574;2022-07-22T10:21:31;29.50;42.80
8103;DHT22;4094;49.948;11.574;2022-07-22T10:24:11;29.50;42.30
8103;DHT22;4094;49.948;11.574;2022-07-22T10:26:48;29.60;42.20
8103;DHT22;4094;49.948;11.574;2022-07-22T10:29:25;29.60;42.30
8103;DHT22;4094;49.948;11.574;2022-07-22T10:35:20;29.70;42.40
8103;DHT22;4094;49.948;11.574;2022-07-22T10:37:51;29.80;41.70
8103;DHT22;4094;49.948;11.574;2022-07-22T10:40:24;29.80;41.50
8103;DHT22;4094;49.948;11.574;2022-07-22T10:43:19;29.80;40.90
8103;DHT22;4094;49.948;11.574;2022-07-22T10:45:50;29.80;41.50
8103;DHT22;4094;49.948;11.574;2022-07-22T10:48:22;29.80;41.10
8103;DHT22;4094;49.948;11.574;2022-07-22T10:50:54;29.90;41.30
8103;DHT22;4094;49.948;11.574;2022-07-22T10:53:38;29.90;41.00
8103;DHT22;4094;49.948;11.574;2022-07-22T10:56:17;29.90;40.50
8103;DHT22;4094;49.948;11.574;2022-07-22T10:58:49;30.00;41.10
8103;DHT22;4094;49.948;11.574;2022-07-22T11:01:22;30.00;40.70
8103;DHT22;4094;49.948;11.574;2022-07-22T11:03:52;30.00;40.10
8103;DHT22;4094;49.948;11.574;2022-07-22T11:06:28;30.10;40.80
8103;DHT22;4094;49.948;11.574;2022-07-22T11:08:59;30.10;40.40
8103;DHT22;4094;49.948;11.574;2022-07-22T11:11:43;30.20;40.10
8103;DHT22;4094;49.948;11.574;2022-07-22T11:14:18;30.30;39.80
8103;DHT22;4094;49.948;11.574;2022-07-22T11:16:49;30.30;40.60
8103;DHT22;4094;49.948;11.574;2022-07-22T11:19:21;30.40;40.00
8103;DHT22;4094;49.948;11.574;2022-07-22T11:21:52;30.40;40.50
8103;DHT22;4094;49.948;11.574;2022-07-22T11:24:22;30.50;40.00
8103;DHT22;4094;49.948;11.574;2022-07-22T11:26:54;30.50;39.00
8103;DHT22;4094;49.948;11.574;2022-07-22T11:29:32;30.50;39.60
8103;DHT22;4094;49.948;11.574;2022-07-22T11:32:05;30.50;39.60
8103;DHT22;4094;49.948;11.574;2022-07-22T11:34:36;30.60;39.90
8103;DHT22;4094;49.948;11.574;2022-07-22T11:37:06;30.70;40.20
8103;DHT22;4094;49.948;11.574;2022-07-22T11:39:35;30.70;40.00
8103;DHT22;4094;49.948;11.574;2022-07-22T11:42:07;30.80;39.60
8103;DHT22;4094;49.948;11.574;2022-07-22T11:44:38;30.80;39.20
8103;DHT22;4094;49.948;11.574;2022-07-22T11:47:08;30.80;38.70
8103;DHT22;4094;49.948;11.574;2022-07-22T11:49:38;30.90;39.00
8103;DHT22;4094;49.948;11.574;2022-07-22T11:52:10;30.90;39.30
8103;DHT22;4094;49.948;11.574;2022-07-22T11:54:43;30.90;38.80
8103;DHT22;4094;49.948;11.574;2022-07-22T11:57:15;31.00;38.40
8103;DHT22;4094;49.948;11.574;2022-07-22T11:59:44;31.00;38.50
8103;DHT22;4094;49.948;11.574;2022-07-22T12:02:15;31.00;38.30
8103;DHT22;4094;49.948;11.574;2022-07-22T12:04:46;31.10;38.90
8103;DHT22;4094;49.948;11.574;2022-07-22T12:07:16;31.10;39.10
8103;DHT22;4094;49.948;11.574;2022-07-22T12:09:45;31.20;38.70
8103;DHT22;4094;49.948;11.574;2022-07-22T12:12:16;31.20;38.00
8103;DHT22;4094;49.948;11.574;2022-07-22T12:14:45;31.30;38.10
8103;DHT22;4094;49.948;11.574;2022-07-22T12:17:16;31.40;37.60
8103;DHT22;4094;49.948;11.574;2022-07-22T12:19:45;31.40;37.00
8103;DHT22;4094;49.948;11.574;2022-07-22T12:22:20;31.40;37.80
8103;DHT22;4094;49.948;11.574;2022-07-22T12:24:58;31.50;37.50
8103;DHT22;4094;49.948;11.574;2022-07-22T12:27:29;31.50;37.00
8103;DHT22;4094;49.948;11.574;2022-07-22T12:30:00;31.60;36.90
8103;DHT22;4094;49.948;11.574;2022-07-22T12:32:29;31.60;37.60
8103;DHT22;4094;49.948;11.574;2022-07-22T12:35:00;31.60;37.60
8103;DHT22;4094;49.948;11.574;2022-07-22T12:37:31;31.70;37.40
8103;DHT22;4094;49.948;11.574;2022-07-22T12:40:02;31.80;37.80
8103;DHT22;4094;49.948;11.574;2022-07-22T12:42:36;31.90;37.60
8103;DHT22;4094;49.948;11.574;2022-07-22T12:45:07;32.00;37.00
8103;DHT22;4094;49.948;11.574;2022-07-22T12:47:47;32.10;36.50
8103;DHT22;4094;49.948;11.574;2022-07-22T12:50:26;32.20;36.00
8103;DHT22;4094;49.948;11.574;2022-07-22T12:52:57;32.30;36.40
8103;DHT22;4094;49.948;11.574;2022-07-22T12:55:46;32.40;36.40
8103;DHT22;4094;49.948;11.574;2022-07-22T12:58:18;32.50;35.60
8103;DHT22;4094;49.948;11.574;2022-07-22T13:00:51;32.50;35.40
8103;DHT22;4094;49.948;11.574;2022-07-22T13:03:22;32.60;35.10
8103;DHT22;4094;49.948;11.574;2022-07-22T13:05:55;32.60;35.10
8103;DHT22;4094;49.948;11.574;2022-07-22T13:08:25;32.60;34.60
8103;DHT22;4094;49.948;11.574;2022-07-22T13:11:11;32.60;35.20
8103;DHT22;4094;49.948;11.574;2022-07-22T13:13:42;32.70;35.60
8103;DHT22;4094;49.948;11.574;2022-07-22T13:16:13;32.80;36.30
8103;DHT22;4094;49.948;11.574;2022-07-22T13:18:43;32.80;35.10
8103;DHT22;4094;49.948;11.574;2022-07-22T13:21:12;32.80;34.70
8103;DHT22;4094;49.948;11.574;2022-07-22T13:23:41;32.90;35.30
8103;DHT22;4094;49.948;11.574;2022-07-22T13:26:10;33.00;35.80
8103;DHT22;4094;49.948;11.574;2022-07-22T13:28:39;33.10;35.50
8103;DHT22;4094;49.948;11.574;2022-07-22T13:31:10;33.20;35.60
8103;DHT22;4094;49.948;11.574;2022-07-22T13:33:39;33.20;35.60
8103;DHT22;4094;49.948;11.574;2022-07-22T13:36:08;33.30;35.40
8103;DHT22;4094;49.948;11.574;2022-07-22T13:38:37;33.40;35.10
8103;DHT22;4094;49.948;11.574;2022-07-22T13:41:06;33.40;34.40
8103;DHT22;4094;49.948;11.574;2022-07-22T13:43:44;33.50;34.20
8103;DHT22;4094;49.948;11.574;2022-07-22T13:46:15;33.50;34.70
8103;DHT22;4094;49.948;11.574;2022-07-22T13:48:45;33.60;34.00
8103;DHT22;4094;49.948;11.574;2022-07-22T13:51:14;33.60;34.40
8103;DHT22;4094;49.948;11.574;2022-07-22T13:53:43;33.70;34.40
8103;DHT22;4094;49.948;11.574;2022-07-22T13:56:12;33.70;34.40
8103;DHT22;4094;49.948;11.574;2022-07-22T13:58:42;33.80;34.70
8103;DHT22;4094;49.948;11.574;2022-07-22T14:01:11;33.90;35.00
8103;DHT22;4094;49.948;11.574;2022-07-22T14:03:42;33.90;34.10
8103;DHT22;4094;49.948;11.574;2022-07-22T14:06:11;34.00;33.70
8103;DHT22;4094;49.948;11.574;2022-07-22T14:08:40;34.00;33.40
8103;DHT22;4094;49.948;11.574;2022-07-22T14:11:09;34.00;33.90
8103;DHT22;4094;49.948;11.574;2022-07-22T14:13:38;34.10;32.70
8103;DHT22;4094;49.948;11.574;2022-07-22T14:16:08;34.10;33.90
8103;DHT22;4094;49.948;11.574;2022-07-22T14:19:17;34.10;33.60
8103;DHT22;4094;49.948;11.574;2022-07-22T14:21:46;34.20;33.10
8103;DHT22;4094;49.948;11.574;2022-07-22T14:24:16;34.20;32.90
8103;DHT22;4094;49.948;11.574;2022-07-22T14:26:45;34.30;33.40
8103;DHT22;4094;49.948;11.574;2022-07-22T14:29:14;34.30;32.90
8103;DHT22;4094;49.948;11.574;2022-07-22T14:31:43;34.30;32.80
8103;DHT22;4094;49.948;11.574;2022-07-22T14:34:13;34.40;32.50
8103;DHT22;4094;49.948;11.574;2022-07-22T14:36:44;34.40;32.50
8103;DHT22;4094;49.948;11.574;2022-07-22T14:39:13;34.30;31.50
8103;DHT22;4094;49.948;11.574;2022-07-22T14:41:42;34.30;31.50
8103;DHT22;4094;49.948;11.574;2022-07-22T14:44:14;34.30;31.80
8103;DHT22;4094;49.948;11.574;2022-07-22T14:46:43;34.40;32.00
8103;DHT22;4094;49.948;11.574;2022-07-22T14:49:12;34.40;31.50
8103;DHT22;4094;49.948;11.574;2022-07-22T14:51:44;34.30;31.50
8103;DHT22;4094;49.948;11.574;2022-07-22T14:54:13;34.30;31.40
8103;DHT22;4094;49.948;11.574;2022-07-22T14:56:42;34.30;31.50
8103;DHT22;4094;49.948;11.574;2022-07-22T14:59:12;34.30;31.70
8103;DHT22;4094;49.948;11.574;2022-07-22T15:01:41;34.20;31.30
8103;DHT22;4094;49.948;11.574;2022-07-22T15:04:10;34.20;32.00
8103;DHT22;4094;49.948;11.574;2022-07-22T15:06:39;34.20;31.50
8103;DHT22;4094;49.948;11.574;2022-07-22T15:09:10;34.10;31.60
8103;DHT22;4094;49.948;11.574;2022-07-22T15:11:39;34.10;31.40
8103;DHT22;4094;49.948;11.574;2022-07-22T15:14:08;34.10;31.20
8103;DHT22;4094;49.948;11.574;2022-07-22T15:16:37;34.10;32.20
8103;DHT22;4094;49.948;11.574;2022-07-22T15:19:07;34.00;32.20
8103;DHT22;4094;49.948;11.574;2022-07-22T15:21:37;33.90;31.50
8103;DHT22;4094;49.948;11.574;2022-07-22T15:24:06;33.90;31.40
8103;DHT22;4094;49.948;11.574;2022-07-22T15:26:37;33.80;31.50
8103;DHT22;4094;49.948;11.574;2022-07-22T15:29:06;33.80;31.50
8103;DHT22;4094;49.948;11.574;2022-07-22T15:31:36;33.80;31.80
8103;DHT22;4094;49.948;11.574;2022-07-22T15:34:05;33.80;31.40
8103;DHT22;4094;49.948;11.574;2022-07-22T15:36:34;33.70;31.20
8103;DHT22;4094;49.948;11.574;2022-07-22T15:39:03;33.70;31.10
8103;DHT22;4094;49.948;11.574;2022-07-22T15:41:33;33.60;31.30
8103;DHT22;4094;49.948;11.574;2022-07-22T15:44:05;33.60;32.00
8103;DHT22;4094;49.948;11.574;2022-07-22T15:46:34;33.60;31.40
8103;DHT22;4094;49.948;11.574;2022-07-22T15:49:06;33.50;31.60
8103;DHT22;4094;49.948;11.574;2022-07-22T15:51:36;33.50;31.50
8103;DHT22;4094;49.948;11.574;2022-07-22T15:54:05;33.40;31.40
8103;DHT22;4094;49.948;11.574;2022-07-22T15:56:34;33.40;31.20
8103;DHT22;4094;49.948;11.574;2022-07-22T15:59:05;33.40;31.40
8103;DHT22;4094;49.948;11.574;2022-07-22T16:01:56;33.40;31.70
8103;DHT22;4094;49.948;11.574;2022-07-22T16:04:26;33.40;31.40
8103;DHT22;4094;49.948;11.574;2022-07-22T16:06:55;33.40;31.20
8103;DHT22;4094;49.948;11.574;2022-07-22T16:09:25;33.40;31.70
8103;DHT22;4094;49.948;11.574;2022-07-22T16:11:55;33.40;31.10
8103;DHT22;4094;49.948;11.574;2022-07-22T16:14:26;33.40;31.40
8103;DHT22;4094;49.948;11.574;2022-07-22T16:16:57;33.50;31.40
8103;DHT22;4094;49.948;11.574;2022-07-22T16:19:26;33.50;31.30
8103;DHT22;4094;49.948;11.574;2022-07-22T16:21:55;33.50;31.10